createdAt,value
2023-04-28T00:00:51.805Z,101461.19
2023-04-28T00:03:22.125Z,101470.94
2023-04-28T00:05:50.833Z,101472.63
2023-04-28T00:08:17.514Z,101471.78
2023-04-28T00:10:45.181Z,101477.00
2023-04-28T00:13:11.809Z,101470.22
2023-04-28T00:15:38.386Z,101455.53
2023-04-28T00:18:07.628Z,101448.63
2023-04-28T00:20:34.245Z,101449.63
2023-04-28T00:23:01.199Z,101447.00
2023-04-28T00:25:27.816Z,101433.03
2023-04-28T00:27:57.706Z,101424.44
2023-04-28T00:30:25.732Z,101425.22
2023-04-28T00:32:54.194Z,101415.78
2023-04-28T00:35:21.866Z,101414.84
2023-04-28T00:37:53.103Z,101406.94
2023-04-28T00:40:20.167Z,101403.50
2023-04-28T00:42:46.666Z,101405.25
2023-04-28T00:45:13.201Z,101418.31
2023-04-28T00:47:40.107Z,101418.31
2023-04-28T00:50:07.616Z,101413.22
2023-04-28T00:52:34.400Z,101410.69
2023-04-28T00:55:01.293Z,101408.16
2023-04-28T00:57:27.806Z,101407.22
2023-04-28T00:59:55.201Z,101400.31
2023-04-28T01:02:22.245Z,101396.94
2023-04-28T01:04:51.420Z,101389.88
2023-04-28T01:07:17.955Z,101382.97
2023-04-28T01:09:45.446Z,101385.66
2023-04-28T01:12:44.465Z,101384.03
2023-04-28T01:15:16.870Z,101373.63
2023-04-28T01:17:43.653Z,101385.72
2023-04-28T01:20:11.290Z,101384.88
2023-04-28T01:22:37.839Z,101385.78
2023-04-28T01:25:04.982Z,101378.84
2023-04-28T01:27:31.420Z,101374.44
2023-04-28T01:29:58.597Z,101377.13
2023-04-28T01:32:25.553Z,101371.91
2023-04-28T01:34:52.234Z,101371.91
2023-04-28T01:37:18.950Z,101367.69
2023-04-28T01:39:45.574Z,101363.47
2023-04-28T01:42:12.026Z,101358.25
2023-04-28T01:44:38.689Z,101357.41
2023-04-28T01:47:05.418Z,101353.97
2023-04-28T01:49:32.247Z,101349.69
2023-04-28T01:51:59.037Z,101342.91
2023-04-28T01:54:26.042Z,101332.53
2023-04-28T01:57:17.863Z,101327.47
2023-04-28T01:59:46.474Z,101332.81
2023-04-28T02:02:13.499Z,101337.06
2023-04-28T02:04:40.069Z,101336.22
2023-04-28T02:07:08.718Z,101331.00
2023-04-28T02:09:36.518Z,101332.69
2023-04-28T02:12:04.304Z,101336.22
2023-04-28T02:14:36.172Z,101331.84
2023-04-28T02:17:05.582Z,101327.47
2023-04-28T02:19:32.375Z,101327.31
2023-04-28T02:21:58.870Z,101320.41
2023-04-28T02:24:25.640Z,101316.09
2023-04-28T02:26:56.355Z,101310.13
2023-04-28T02:29:22.894Z,101309.28
2023-04-28T02:31:51.406Z,101303.22
2023-04-28T02:34:18.068Z,101298.91
2023-04-28T02:36:45.126Z,101293.78
2023-04-28T02:39:11.984Z,101294.75
2023-04-28T02:41:38.812Z,101288.84
2023-04-28T02:44:05.862Z,101295.75
2023-04-28T02:46:34.103Z,101281.88
2023-04-28T02:49:00.932Z,101293.91
2023-04-28T02:51:27.410Z,101283.41
2023-04-28T02:53:54.184Z,101276.41
2023-04-28T02:56:20.963Z,101269.47
2023-04-28T02:58:47.774Z,101261.66
2023-04-28T03:01:14.393Z,101249.50
2023-04-28T03:03:41.442Z,101247.97
2023-04-28T03:06:08.541Z,101247.13
2023-04-28T03:08:35.053Z,101251.50
2023-04-28T03:11:03.070Z,101247.19
2023-04-28T03:13:30.226Z,101247.97
2023-04-28T03:15:56.944Z,101239.34
2023-04-28T03:18:23.997Z,101241.34
2023-04-28T03:20:51.732Z,101237.06
2023-04-28T03:23:18.469Z,101236.06
2023-04-28T03:25:46.020Z,101228.31
2023-04-28T03:28:12.799Z,101235.22
2023-04-28T03:30:39.615Z,101230.91
2023-04-28T03:33:07.450Z,101221.34
2023-04-28T03:35:33.951Z,101220.63
2023-04-28T03:38:00.747Z,101213.59
2023-04-28T03:40:27.480Z,101211.97
2023-04-28T03:42:54.566Z,101203.31
2023-04-28T03:45:21.372Z,101211.88
2023-04-28T03:47:47.888Z,101210.22
2023-04-28T03:50:14.577Z,101213.75
2023-04-28T03:52:41.367Z,101215.56
2023-04-28T03:55:08.455Z,101212.13
2023-04-28T03:57:36.109Z,101206.81
2023-04-28T04:00:02.982Z,101205.13
2023-04-28T04:02:29.625Z,101204.28
2023-04-28T04:04:56.428Z,101194.84
2023-04-28T04:07:23.573Z,101193.22
2023-04-28T04:09:52.432Z,101188.75
2023-04-28T04:12:19.304Z,101191.41
2023-04-28T04:14:45.940Z,101183.59
2023-04-28T04:17:12.781Z,101185.34
2023-04-28T04:19:41.589Z,101175.84
2023-04-28T04:22:08.338Z,101176.69
2023-04-28T04:24:35.052Z,101165.47
2023-04-28T04:27:02.667Z,101166.31
2023-04-28T04:29:29.194Z,101172.38
2023-04-28T04:31:55.779Z,101165.41
2023-04-28T04:34:23.137Z,101174.00
2023-04-28T04:36:49.906Z,101171.25
2023-04-28T04:39:17.343Z,101157.28
2023-04-28T04:41:46.464Z,101148.63
2023-04-28T04:44:14.447Z,101152.84
2023-04-28T04:46:41.166Z,101150.25
2023-04-28T04:49:07.729Z,101145.81
2023-04-28T04:51:37.162Z,101153.31
2023-04-28T04:54:03.832Z,101149.81
2023-04-28T04:56:33.214Z,101150.56
2023-04-28T04:58:59.875Z,101147.94
2023-04-28T05:01:31.117Z,101140.06
2023-04-28T05:03:57.970Z,101130.56
2023-04-28T05:06:25.073Z,101126.94
2023-04-28T05:08:51.586Z,101127.72
2023-04-28T05:11:18.876Z,101129.41
2023-04-28T05:13:45.626Z,101134.47
2023-04-28T05:16:12.283Z,101137.09
2023-04-28T05:18:45.121Z,101128.28
2023-04-28T05:21:22.382Z,101125.50
2023-04-28T05:23:53.320Z,101126.34
2023-04-28T05:26:20.191Z,101130.66
2023-04-28T05:28:47.078Z,101132.34
2023-04-28T05:31:16.972Z,101133.09
2023-04-28T05:33:43.525Z,101136.59
2023-04-28T05:36:10.509Z,101139.88
2023-04-28T05:38:37.260Z,101141.50
2023-04-28T05:41:03.976Z,101145.72
2023-04-28T05:43:30.752Z,101153.63
2023-04-28T05:45:58.111Z,101146.72
2023-04-28T05:48:47.403Z,101140.03
2023-04-28T05:54:47.362Z,101141.75
2023-04-28T05:57:27.141Z,101134.97
2023-04-28T05:59:59.936Z,101136.69
2023-04-28T06:05:08.446Z,101145.44
2023-04-28T06:07:35.307Z,101140.94
2023-04-28T06:10:01.876Z,101147.00
2023-04-28T06:12:56.652Z,101146.13
2023-04-28T06:15:23.252Z,101137.28
2023-04-28T06:17:51.398Z,101127.72
2023-04-28T06:20:18.229Z,101116.56
2023-04-28T06:22:46.545Z,101113.06
2023-04-28T06:25:13.116Z,101103.22
2023-04-28T06:27:39.668Z,101109.75
2023-04-28T06:30:07.822Z,101110.97
2023-04-28T06:32:34.422Z,101113.16
2023-04-28T06:35:01.048Z,101108.94
2023-04-28T06:41:23.374Z,101108.66
2023-04-28T06:43:53.282Z,101098.88
2023-04-28T06:46:21.446Z,101091.72
2023-04-28T06:48:50.237Z,101102.63
2023-04-28T06:51:16.871Z,101101.03
2023-04-28T06:53:43.385Z,101107.50
2023-04-28T06:56:11.618Z,101097.00
2023-04-28T07:07:00.206Z,101078.78
2023-04-28T07:09:39.670Z,101077.66
2023-04-28T07:13:21.616Z,101079.78
2023-04-28T07:15:48.717Z,101077.56
2023-04-28T07:18:15.624Z,101075.38
2023-04-28T07:20:42.174Z,101083.63
2023-04-28T07:23:08.911Z,101086.31
2023-04-28T07:25:36.596Z,101087.81
2023-04-28T07:28:04.357Z,101079.50
2023-04-28T07:30:31.586Z,101080.97
2023-04-28T07:33:00.789Z,101083.41
2023-04-28T07:35:27.403Z,101082.75
2023-04-28T07:37:55.993Z,101080.16
2023-04-28T07:40:38.202Z,101089.06
2023-04-28T07:43:04.849Z,101087.28
2023-04-28T07:45:31.942Z,101085.16
2023-04-28T07:47:58.649Z,101079.16
2023-04-28T07:50:27.823Z,101070.28
2023-04-28T07:52:55.615Z,101073.75
2023-04-28T07:55:22.466Z,101072.97
2023-04-28T07:57:51.966Z,101070.03
2023-04-28T08:00:19.756Z,101071.03
2023-04-28T08:02:46.833Z,101069.81
2023-04-28T08:05:14.194Z,101069.69
2023-04-28T08:07:41.525Z,101066.22
2023-04-28T08:10:16.131Z,101060.59
2023-04-28T08:12:42.831Z,101060.28
2023-04-28T08:15:36.034Z,101060.91
2023-04-28T08:18:02.927Z,101059.00
2023-04-28T08:20:57.876Z,101062.50
2023-04-28T08:23:28.507Z,101074.78
2023-04-28T08:28:38.369Z,101071.84
2023-04-28T08:31:10.718Z,101076.22
2023-04-28T08:33:37.598Z,101073.63
2023-04-28T08:36:05.176Z,101074.47
2023-04-28T08:38:33.249Z,101067.47
2023-04-28T08:40:59.850Z,101070.06
2023-04-28T08:43:26.634Z,101062.06
2023-04-28T08:45:53.395Z,101062.94
2023-04-28T08:48:22.268Z,101066.06
2023-04-28T08:50:54.452Z,101063.94
2023-04-28T08:53:25.622Z,101064.75
2023-04-28T08:55:59.547Z,101070.63
2023-04-28T08:58:41.780Z,101064.03
2023-04-28T09:02:26.073Z,101062.13
2023-04-28T09:05:04.901Z,101061.41
2023-04-28T09:07:31.889Z,101057.84
2023-04-28T09:25:47.759Z,101045.13
2023-04-28T09:28:47.183Z,101049.66
2023-04-28T09:31:40.120Z,101050.28
2023-04-28T09:38:07.858Z,101051.84
2023-04-28T09:51:00.499Z,101045.47
2023-04-28T09:53:39.628Z,101041.50
2023-04-28T10:05:03.466Z,101035.34
2023-04-28T10:07:39.673Z,101034.19
2023-04-28T10:10:07.812Z,101036.88
2023-04-28T10:12:42.273Z,101031.34
2023-04-28T10:23:30.527Z,101034.19
2023-04-28T10:26:03.049Z,101033.53
2023-04-28T10:28:33.732Z,101039.84
2023-04-28T10:31:13.642Z,101029.97
2023-04-28T10:33:42.237Z,101042.13
2023-04-28T10:40:34.679Z,101034.59
2023-04-28T10:43:01.602Z,101036.47
2023-04-28T10:45:58.144Z,101036.28
2023-04-28T10:48:39.893Z,101027.78
2023-04-28T10:51:21.546Z,101034.19
2023-04-28T10:57:24.117Z,101033.22
2023-04-28T10:59:52.094Z,101032.88
2023-04-28T11:02:50.714Z,101033.47
2023-04-28T11:05:19.311Z,101034.31
2023-04-28T11:08:27.954Z,101033.97
2023-04-28T11:11:14.755Z,101032.72
2023-04-28T11:13:42.633Z,101023.25
2023-04-28T11:16:09.798Z,101029.03
2023-04-28T11:18:55.182Z,101034.31
2023-04-28T11:21:23.499Z,101031.28
2023-04-28T11:23:50.570Z,101030.31
2023-04-28T11:26:18.714Z,101023.88
2023-04-28T11:28:50.380Z,101022.34
2023-04-28T11:31:22.972Z,101019.94
2023-04-28T11:34:14.846Z,101018.16
2023-04-28T11:36:42.971Z,101020.31
2023-04-28T11:39:10.984Z,101015.78
2023-04-28T11:41:39.402Z,101015.94
2023-04-28T11:44:13.310Z,101022.41
2023-04-28T11:46:53.758Z,101013.53
2023-04-28T11:49:21.179Z,101014.59
2023-04-28T11:51:50.458Z,101018.81
2023-04-28T11:54:22.768Z,101019.03
2023-04-28T11:56:49.806Z,101024.19
2023-04-28T11:59:16.797Z,101026.19
2023-04-28T12:01:50.319Z,101028.09
2023-04-28T12:04:38.109Z,101026.91
2023-04-28T12:07:15.661Z,101025.03
2023-04-28T12:10:11.532Z,101025.41
2023-04-28T12:15:08.969Z,101029.00
2023-04-28T12:17:38.154Z,101029.25
2023-04-28T12:20:34.747Z,101029.38
2023-04-28T12:23:02.973Z,101024.56
2023-04-28T12:25:29.917Z,101028.72
2023-04-28T12:28:05.085Z,101032.94
2023-04-28T12:30:34.752Z,101035.53
2023-04-28T12:33:09.463Z,101033.63
2023-04-28T12:35:36.763Z,101036.81
2023-04-28T12:38:03.543Z,101034.06
2023-04-28T12:40:30.693Z,101042.63
2023-04-28T12:42:57.460Z,101033.66
2023-04-28T12:45:24.237Z,101027.22
2023-04-28T12:47:51.030Z,101030.94
2023-04-28T12:50:17.837Z,101030.03
2023-04-28T12:52:44.388Z,101029.00
2023-04-28T12:55:11.102Z,101022.84
2023-04-28T12:57:39.482Z,101028.47
2023-04-28T13:00:08.781Z,101031.84
2023-04-28T13:02:36.043Z,101027.72
2023-04-28T13:05:02.978Z,101037.72
2023-04-28T13:07:30.620Z,101036.78
2023-04-28T13:09:58.933Z,101033.84
2023-04-28T13:12:26.698Z,101028.16
2023-04-28T13:15:21.045Z,101038.84
2023-04-28T13:17:59.544Z,101027.56
2023-04-28T13:20:28.914Z,101038.09
2023-04-28T13:23:23.758Z,101035.41
2023-04-28T13:26:30.015Z,101032.53
2023-04-28T13:29:00.155Z,101030.03
2023-04-28T13:31:27.476Z,101030.13
2023-04-28T13:34:12.212Z,101035.28
2023-04-28T13:44:52.738Z,101041.03
2023-04-28T13:47:30.036Z,101035.66
2023-04-28T13:49:56.780Z,101045.47
2023-04-28T13:52:24.027Z,101045.03
2023-04-28T13:54:50.992Z,101048.25
2023-04-28T13:57:17.959Z,101041.94
2023-04-28T13:59:59.998Z,101042.19
2023-04-28T14:03:10.237Z,101044.94
2023-04-28T14:05:48.454Z,101047.56
2023-04-28T14:08:18.807Z,101053.97
2023-04-28T14:10:48.290Z,101055.06
2023-04-28T14:13:15.142Z,101052.53
2023-04-28T14:15:51.305Z,101064.13
2023-04-28T14:18:24.864Z,101053.84
2023-04-28T14:20:51.975Z,101052.66
2023-04-28T14:23:18.739Z,101055.44
2023-04-28T14:25:45.214Z,101047.19
2023-04-28T14:28:11.935Z,101051.41
2023-04-28T14:30:38.843Z,101050.56
2023-04-28T14:33:07.108Z,101055.22
2023-04-28T14:35:34.854Z,101057.69
2023-04-28T14:38:01.462Z,101052.75
2023-04-28T14:40:28.046Z,101053.56
2023-04-28T14:42:55.210Z,101062.09
2023-04-28T14:45:22.071Z,101058.03
2023-04-28T14:47:49.294Z,101064.69
2023-04-28T14:50:15.892Z,101062.09
2023-04-28T14:52:42.784Z,101067.97
2023-04-28T14:55:09.897Z,101063.19
2023-04-28T14:57:37.933Z,101069.16
2023-04-28T15:00:05.782Z,101071.47
2023-04-28T15:02:32.729Z,101064.19
2023-04-28T15:04:59.760Z,101071.56
2023-04-28T15:07:31.927Z,101064.53
2023-04-28T15:10:03.822Z,101061.06
2023-04-28T15:12:30.893Z,101068.38
2023-04-28T15:14:59.352Z,101065.22
2023-04-28T15:17:26.926Z,101066.59
2023-04-28T15:19:53.426Z,101077.34
2023-04-28T15:22:22.111Z,101078.28
2023-04-28T15:24:57.458Z,101077.22
2023-04-28T15:27:24.402Z,101073.16
2023-04-28T15:29:51.303Z,101080.63
2023-04-28T15:32:20.654Z,101078.94
2023-04-28T15:34:47.959Z,101082.66
2023-04-28T15:37:40.891Z,101086.00
2023-04-28T15:40:12.500Z,101073.59
2023-04-28T15:42:52.308Z,101079.06
2023-04-28T15:51:21.715Z,101085.72
2023-04-28T15:53:50.758Z,101088.56
2023-04-28T15:56:19.757Z,101089.72
2023-04-28T15:58:48.974Z,101094.41
2023-04-28T16:01:16.297Z,101097.03
2023-04-28T16:03:44.258Z,101094.41
2023-04-28T16:06:13.339Z,101095.38
2023-04-28T16:08:39.828Z,101102.50
2023-04-28T16:11:06.483Z,101105.28
2023-04-28T16:13:36.877Z,101103.69
2023-04-28T16:16:04.465Z,101098.44
2023-04-28T16:18:31.457Z,101089.38
2023-04-28T16:21:00.010Z,101098.00
2023-04-28T16:23:26.760Z,101100.84
2023-04-28T16:25:54.403Z,101108.53
2023-04-28T16:28:21.225Z,101116.94
2023-04-28T16:30:47.687Z,101118.63
2023-04-28T16:33:15.826Z,101117.25
2023-04-28T16:35:42.344Z,101120.00
2023-04-28T16:38:08.995Z,101119.03
2023-04-28T16:40:35.583Z,101114.31
2023-04-28T16:43:02.075Z,101116.22
2023-04-28T16:45:29.465Z,101122.63
2023-04-28T16:47:56.460Z,101124.50
2023-04-28T16:50:23.189Z,101122.44
2023-04-28T16:52:50.270Z,101117.38
2023-04-28T16:55:18.850Z,101121.56
2023-04-28T16:57:48.319Z,101118.19
2023-04-28T17:00:15.409Z,101121.25
2023-04-28T17:02:42.210Z,101131.13
2023-04-28T17:05:09.454Z,101128.94
2023-04-28T17:07:37.312Z,101135.22
2023-04-28T17:10:04.369Z,101141.78
2023-04-28T17:12:31.104Z,101138.28
2023-04-28T17:14:57.779Z,101137.75
2023-04-28T17:17:24.311Z,101139.44
2023-04-28T17:19:51.008Z,101138.59
2023-04-28T17:22:18.168Z,101144.47
2023-04-28T17:24:45.510Z,101145.63
2023-04-28T17:27:17.768Z,101152.03
2023-04-28T17:29:44.433Z,101153.41
2023-04-28T17:32:11.209Z,101156.44
2023-04-28T17:35:42.314Z,101158.94
2023-04-28T17:38:09.280Z,101164.50
2023-04-28T17:41:02.747Z,101160.06
2023-04-28T17:43:29.871Z,101166.72
2023-04-28T17:45:56.944Z,101169.44
2023-04-28T17:48:23.484Z,101176.97
2023-04-28T17:51:46.621Z,101172.13
2023-04-28T17:54:14.098Z,101174.75
2023-04-28T17:56:40.737Z,101182.31
2023-04-28T17:59:08.809Z,101183.84
2023-04-28T18:01:35.928Z,101185.50
2023-04-28T18:04:05.746Z,101188.25
2023-04-28T18:06:45.200Z,101189.81
2023-04-28T18:09:11.740Z,101193.19
2023-04-28T18:11:39.016Z,101197.69
2023-04-28T18:14:06.840Z,101187.59
2023-04-28T18:16:33.745Z,101200.28
2023-04-28T18:19:00.526Z,101198.03
2023-04-28T18:21:29.023Z,101200.66
2023-04-28T18:29:34.075Z,101195.69
2023-04-28T18:32:05.854Z,101200.09
2023-04-28T18:35:47.637Z,101205.47
2023-04-28T18:44:15.216Z,101208.47
2023-04-28T18:44:16.477Z,101206.13
2023-04-28T18:57:23.079Z,101217.44
2023-04-28T18:59:53.527Z,101217.44
2023-04-28T19:02:28.578Z,101219.34
2023-04-28T19:08:28.909Z,101228.31
2023-04-28T19:11:08.163Z,101223.81
2023-04-28T19:13:35.827Z,101223.94
2023-04-28T19:16:02.961Z,101231.88
2023-04-28T19:18:39.925Z,101242.53
2023-04-28T19:21:06.768Z,101247.13
2023-04-28T19:27:42.157Z,101251.34
2023-04-28T19:27:47.312Z,101259.22
2023-04-28T19:30:14.956Z,101262.03
2023-04-28T19:32:42.153Z,101266.50
2023-04-28T19:35:09.411Z,101268.28
2023-04-28T19:37:38.394Z,101284.09
2023-04-28T19:40:23.282Z,101277.38
2023-04-28T19:45:42.153Z,101285.59
2023-04-28T19:48:50.001Z,101287.38
2023-04-28T19:52:08.289Z,101297.94
2023-04-28T19:55:18.318Z,101299.81
2023-04-28T19:57:46.766Z,101308.69
2023-04-28T20:00:26.570Z,101307.09
2023-04-28T20:05:35.975Z,101312.59
2023-04-28T20:08:03.291Z,101312.69
2023-04-28T20:10:29.868Z,101308.56
2023-04-28T20:12:59.197Z,101318.28
2023-04-28T20:15:26.092Z,101312.66
2023-04-28T20:17:52.795Z,101316.28
2023-04-28T20:20:19.757Z,101327.75
2023-04-28T20:22:48.795Z,101322.69
2023-04-28T20:25:18.491Z,101326.19
2023-04-28T20:27:50.017Z,101331.50
2023-04-28T20:30:17.987Z,101338.63
2023-04-28T20:32:44.622Z,101331.84
2023-04-28T20:35:11.510Z,101340.81
2023-04-28T20:37:38.621Z,101345.19
2023-04-28T20:40:06.171Z,101344.38
2023-04-28T20:42:33.506Z,101351.72
2023-04-28T20:45:00.124Z,101359.63
2023-04-28T20:47:27.396Z,101359.81
2023-04-28T20:49:53.997Z,101363.19
2023-04-28T20:52:20.608Z,101366.66
2023-04-28T20:54:47.946Z,101369.53
2023-04-28T20:57:14.791Z,101376.63
2023-04-28T20:59:41.633Z,101368.94
2023-04-28T21:02:09.030Z,101382.34
2023-04-28T21:04:35.624Z,101389.47
2023-04-28T21:07:04.864Z,101386.22
2023-04-28T21:09:31.647Z,101388.94
2023-04-28T21:11:58.323Z,101390.13
2023-04-28T21:14:26.076Z,101392.72
2023-04-28T21:17:07.283Z,101396.28
2023-04-28T21:19:34.055Z,101395.44
2023-04-28T21:22:00.745Z,101394.59
2023-04-28T21:28:46.801Z,101399.22
2023-04-28T21:31:51.149Z,101394.94
2023-04-28T21:34:29.852Z,101401.06
2023-04-28T21:40:38.833Z,101412.75
2023-04-28T21:43:05.996Z,101409.38
2023-04-28T21:45:32.479Z,101412.31
2023-04-28T21:48:00.365Z,101421.56
2023-04-28T21:51:06.546Z,101424.94
2023-04-28T21:53:33.689Z,101424.25
2023-04-28T21:56:00.210Z,101419.28
2023-04-28T21:58:28.409Z,101419.44
2023-04-28T22:00:57.518Z,101426.34
2023-04-28T22:03:24.515Z,101436.06
2023-04-28T22:05:55.325Z,101438.03
2023-04-28T22:08:26.962Z,101438.34
2023-04-28T22:10:53.974Z,101439.53
2023-04-28T22:13:25.051Z,101436.22
2023-04-28T22:15:52.343Z,101438.00
2023-04-28T22:18:28.910Z,101438.06
2023-04-28T22:20:55.781Z,101442.75
2023-04-28T22:23:27.128Z,101445.31
2023-04-28T22:25:54.172Z,101437.75
2023-04-28T22:31:55.083Z,101448.34
2023-04-28T22:34:22.486Z,101446.69
2023-04-28T22:36:51.839Z,101446.50
2023-04-28T22:39:20.790Z,101451.56
2023-04-28T22:41:47.561Z,101450.97
2023-04-28T22:44:14.169Z,101453.50
2023-04-28T22:46:40.733Z,101455.13
2023-04-28T22:49:07.301Z,101468.19
2023-04-28T22:51:35.647Z,101469.97
2023-04-28T22:54:05.223Z,101463.75
2023-04-28T22:56:31.764Z,101462.13
2023-04-28T22:58:58.333Z,101463.94
2023-04-28T23:01:25.020Z,101461.47
2023-04-28T23:03:52.101Z,101469.41
2023-04-28T23:06:18.770Z,101470.25
2023-04-28T23:08:45.260Z,101460.78
2023-04-28T23:11:14.210Z,101466.84
2023-04-28T23:13:40.890Z,101471.25
2023-04-28T23:16:07.709Z,101466.94
2023-04-28T23:18:34.330Z,101477.50
2023-04-28T23:21:01.030Z,101474.00
2023-04-28T23:23:27.762Z,101480.16
2023-04-28T23:25:55.560Z,101482.00
2023-04-28T23:28:22.181Z,101486.31
2023-04-28T23:30:49.008Z,101489.06
2023-04-28T23:33:15.548Z,101494.44
2023-04-28T23:35:42.082Z,101492.75
2023-04-28T23:38:08.816Z,101498.84
2023-04-28T23:40:37.270Z,101502.19
2023-04-28T23:43:04.103Z,101506.66
2023-04-28T23:45:30.712Z,101502.38
2023-04-28T23:47:57.343Z,101511.06
2023-04-28T23:50:24.008Z,101508.44
2023-04-28T23:52:50.802Z,101522.25
2023-04-28T23:55:17.486Z,101524.25
2023-04-28T23:57:44.081Z,101511.19
